createdAt,value
2019-03-30T00:00:33.415Z,9.40
2019-03-30T00:03:01.894Z,8.47
2019-03-30T00:05:30.343Z,8.00
2019-03-30T00:07:58.851Z,7.00
2019-03-30T00:10:27.299Z,11.37
2019-03-30T00:12:56.010Z,12.30
2019-03-30T00:15:24.462Z,10.20
2019-03-30T00:17:52.899Z,10.07
2019-03-30T00:20:21.358Z,7.17
2019-03-30T00:22:49.791Z,8.13
2019-03-30T00:25:18.232Z,8.23
2019-03-30T00:27:47.551Z,13.47
2019-03-30T00:30:18.991Z,17.13
2019-03-30T00:32:46.211Z,8.90
2019-03-30T00:35:14.728Z,10.40
2019-03-30T00:37:43.168Z,12.23
2019-03-30T00:40:11.628Z,9.67
2019-03-30T00:42:40.054Z,8.10
2019-03-30T00:45:08.866Z,6.70
2019-03-30T00:47:37.322Z,10.33
2019-03-30T00:50:06.009Z,6.63
2019-03-30T00:52:34.477Z,7.73
2019-03-30T00:55:03.184Z,10.20
2019-03-30T00:57:31.647Z,7.53
2019-03-30T01:00:00.155Z,9.50
2019-03-30T01:02:28.878Z,8.70
2019-03-30T01:04:57.645Z,8.40
2019-03-30T01:07:26.094Z,16.30
2019-03-30T01:09:54.546Z,8.63
2019-03-30T01:12:23.019Z,11.00
2019-03-30T01:14:51.463Z,10.40
2019-03-30T01:17:20.102Z,14.77
2019-03-30T01:20:01.922Z,9.80
2019-03-30T01:22:18.711Z,9.80
2019-03-30T01:24:47.188Z,11.80
2019-03-30T01:27:15.667Z,9.83
2019-03-30T01:29:44.125Z,12.97
2019-03-30T01:32:12.564Z,10.23
2019-03-30T01:34:41.012Z,9.70
2019-03-30T01:37:09.455Z,10.00
2019-03-30T01:39:37.939Z,12.23
2019-03-30T01:42:06.379Z,10.70
2019-03-30T01:44:34.906Z,13.07
2019-03-30T01:47:03.365Z,10.43
2019-03-30T01:49:31.877Z,7.87
2019-03-30T01:52:00.314Z,8.53
2019-03-30T01:54:28.770Z,10.47
2019-03-30T01:56:57.206Z,10.73
2019-03-30T01:59:25.683Z,10.30
2019-03-30T02:01:54.106Z,11.33
2019-03-30T02:04:22.581Z,14.80
2019-03-30T02:06:51.034Z,14.07
2019-03-30T02:09:19.657Z,12.57
2019-03-30T02:11:48.099Z,13.83
2019-03-30T02:14:16.766Z,13.80
2019-03-30T02:16:45.200Z,14.87
2019-03-30T02:19:13.729Z,11.83
2019-03-30T02:21:42.163Z,12.93
2019-03-30T02:24:10.650Z,11.33
2019-03-30T02:26:39.088Z,11.80
2019-03-30T02:29:07.545Z,16.80
2019-03-30T02:31:35.996Z,14.67
2019-03-30T02:34:04.459Z,11.20
2019-03-30T02:36:32.987Z,24.77
2019-03-30T02:39:01.513Z,10.97
2019-03-30T02:41:30.030Z,11.67
2019-03-30T02:43:58.468Z,17.13
2019-03-30T02:46:26.902Z,14.10
2019-03-30T02:48:55.358Z,12.57
2019-03-30T02:51:23.804Z,14.53
2019-03-30T02:53:52.245Z,12.77
2019-03-30T02:56:20.718Z,11.27
2019-03-30T02:58:49.146Z,13.87
2019-03-30T03:01:17.586Z,15.77
2019-03-30T03:03:46.046Z,18.57
2019-03-30T03:06:14.520Z,18.00
2019-03-30T03:08:42.968Z,19.13
2019-03-30T03:11:11.501Z,19.27
2019-03-30T03:13:39.959Z,17.47
2019-03-30T03:16:08.414Z,19.83
2019-03-30T03:18:36.855Z,18.80
2019-03-30T03:21:07.943Z,17.90
2019-03-30T03:23:35.470Z,18.83
2019-03-30T03:26:03.933Z,17.70
2019-03-30T03:28:32.470Z,18.63
2019-03-30T03:31:01.043Z,19.20
2019-03-30T03:33:29.496Z,18.00
2019-03-30T03:35:58.033Z,20.13
2019-03-30T03:38:26.513Z,18.53
2019-03-30T03:40:55.045Z,12.47
2019-03-30T03:43:23.507Z,18.03
2019-03-30T03:45:52.050Z,22.63
2019-03-30T03:48:20.486Z,19.20
2019-03-30T03:50:52.026Z,18.33
2019-03-30T03:53:20.470Z,17.67
2019-03-30T03:55:48.918Z,20.13
2019-03-30T03:58:18.239Z,15.53
2019-03-30T04:00:47.020Z,15.20
2019-03-30T04:03:17.543Z,17.87
2019-03-30T04:05:47.047Z,18.83
2019-03-30T04:08:15.797Z,16.03
2019-03-30T04:10:46.958Z,19.40
2019-03-30T04:13:15.475Z,15.77
2019-03-30T04:15:44.013Z,21.17
2019-03-30T04:18:12.535Z,21.37
2019-03-30T04:20:41.062Z,17.47
2019-03-30T04:23:09.504Z,24.77
2019-03-30T04:25:37.980Z,22.37
2019-03-30T04:28:06.451Z,20.63
2019-03-30T04:30:34.948Z,29.10
2019-03-30T04:33:03.401Z,27.93
2019-03-30T04:35:31.925Z,29.47
2019-03-30T04:38:00.466Z,23.90
2019-03-30T04:40:28.988Z,24.53
2019-03-30T04:42:57.438Z,27.20
2019-03-30T04:45:25.884Z,21.40
2019-03-30T04:47:54.357Z,34.03
2019-03-30T04:50:22.821Z,23.80
2019-03-30T04:52:51.324Z,30.10
2019-03-30T04:55:19.842Z,25.70
2019-03-30T04:57:49.842Z,26.57
2019-03-30T05:00:18.574Z,29.47
2019-03-30T05:02:47.061Z,27.90
2019-03-30T05:05:15.531Z,24.70
2019-03-30T05:07:44.066Z,27.93
2019-03-30T05:10:12.673Z,24.00
2019-03-30T05:12:41.124Z,20.30
2019-03-30T05:15:09.779Z,27.47
2019-03-30T05:17:47.567Z,35.80
2019-03-30T05:20:09.052Z,27.67
2019-03-30T05:22:37.554Z,32.90
2019-03-30T05:25:05.988Z,30.07
2019-03-30T05:27:34.452Z,35.13
2019-03-30T05:30:02.899Z,28.77
2019-03-30T05:32:31.335Z,39.47
2019-03-30T05:34:59.771Z,27.97
2019-03-30T05:37:28.218Z,30.83
2019-03-30T05:39:56.689Z,40.10
2019-03-30T05:42:25.180Z,28.30
2019-03-30T05:44:53.665Z,46.53
2019-03-30T05:47:22.110Z,37.07
2019-03-30T05:49:50.706Z,38.23
2019-03-30T05:52:26.286Z,27.97
2019-03-30T05:54:49.441Z,38.83
2019-03-30T05:57:17.885Z,34.83
2019-03-30T05:59:46.343Z,28.67
2019-03-30T06:02:14.824Z,29.13
2019-03-30T06:04:43.328Z,32.03
2019-03-30T06:07:11.769Z,35.63
2019-03-30T06:09:40.237Z,34.77
2019-03-30T06:12:08.753Z,54.37
2019-03-30T06:14:37.223Z,50.97
2019-03-30T06:17:05.742Z,48.00
2019-03-30T06:19:34.190Z,48.53
2019-03-30T06:22:02.628Z,47.27
2019-03-30T06:24:31.611Z,52.47
2019-03-30T06:27:00.051Z,55.53
2019-03-30T06:29:28.575Z,62.83
2019-03-30T06:31:57.001Z,68.80
2019-03-30T06:34:25.467Z,56.10
2019-03-30T06:36:53.941Z,44.33
2019-03-30T06:39:22.387Z,70.40
2019-03-30T06:41:50.850Z,57.43
2019-03-30T06:44:19.298Z,59.90
2019-03-30T06:46:47.792Z,60.87
2019-03-30T06:49:16.309Z,63.07
2019-03-30T06:51:44.883Z,57.03
2019-03-30T06:54:14.861Z,51.57
2019-03-30T06:56:43.478Z,49.23
2019-03-30T06:59:11.946Z,44.93
2019-03-30T07:01:41.403Z,55.63
2019-03-30T07:04:11.367Z,48.37
2019-03-30T07:06:40.153Z,50.67
2019-03-30T07:09:09.028Z,44.13
2019-03-30T07:11:42.172Z,39.53
2019-03-30T07:14:11.025Z,33.03
2019-03-30T07:16:41.865Z,30.70
2019-03-30T07:19:10.475Z,28.53
2019-03-30T07:21:39.052Z,24.63
2019-03-30T07:24:07.598Z,29.73
2019-03-30T07:26:36.107Z,26.13
2019-03-30T07:29:04.607Z,25.17
2019-03-30T07:31:33.097Z,24.43
2019-03-30T07:34:01.664Z,23.30
2019-03-30T07:36:30.165Z,19.97
2019-03-30T07:38:58.645Z,25.13
2019-03-30T07:41:27.153Z,16.30
2019-03-30T07:43:55.705Z,19.43
2019-03-30T07:46:24.182Z,18.07
2019-03-30T07:48:52.663Z,19.87
2019-03-30T07:51:21.082Z,14.60
2019-03-30T07:53:49.589Z,16.53
2019-03-30T07:56:18.125Z,19.10
2019-03-30T07:58:46.633Z,15.73
2019-03-30T08:01:15.094Z,16.30
2019-03-30T08:03:43.563Z,16.27
2019-03-30T08:06:12.007Z,16.30
2019-03-30T08:08:40.502Z,13.37
2019-03-30T08:11:08.983Z,15.70
2019-03-30T08:13:37.422Z,17.67
2019-03-30T08:16:05.887Z,15.93
2019-03-30T08:18:34.339Z,21.50
2019-03-30T08:21:02.811Z,12.50
2019-03-30T08:23:40.185Z,15.33
2019-03-30T08:26:01.472Z,16.10
2019-03-30T08:28:29.981Z,14.97
2019-03-30T08:30:58.610Z,12.60
2019-03-30T08:33:27.096Z,13.87
2019-03-30T08:35:55.542Z,13.77
2019-03-30T08:38:24.021Z,12.63
2019-03-30T08:40:52.464Z,12.93
2019-03-30T08:43:21.001Z,12.13
2019-03-30T08:45:49.452Z,14.03
2019-03-30T08:48:17.940Z,11.60
2019-03-30T08:50:46.530Z,19.03
2019-03-30T08:53:15.042Z,13.93
2019-03-30T08:55:43.586Z,14.77
2019-03-30T08:58:12.459Z,11.43
2019-03-30T09:00:42.338Z,11.07
2019-03-30T09:03:10.865Z,8.43
2019-03-30T09:05:39.412Z,8.33
2019-03-30T09:08:08.071Z,6.60
2019-03-30T09:10:36.539Z,7.50
2019-03-30T09:13:05.992Z,7.93
2019-03-30T09:15:34.530Z,13.27
2019-03-30T09:18:03.174Z,6.40
2019-03-30T09:20:31.647Z,12.47
2019-03-30T09:23:00.082Z,9.70
2019-03-30T09:25:28.587Z,8.43
2019-03-30T09:27:57.124Z,13.67
2019-03-30T09:30:25.654Z,16.13
2019-03-30T09:32:54.160Z,5.67
2019-03-30T09:35:22.700Z,11.20
2019-03-30T09:37:51.182Z,5.73
2019-03-30T09:40:19.745Z,8.77
2019-03-30T09:42:48.270Z,8.23
2019-03-30T09:45:16.727Z,9.47
2019-03-30T09:47:45.460Z,10.00
2019-03-30T09:50:14.304Z,8.27
2019-03-30T09:52:42.743Z,7.40
2019-03-30T09:55:11.516Z,8.63
2019-03-30T09:57:40.049Z,7.47
2019-03-30T10:00:09.002Z,10.33
2019-03-30T10:02:37.467Z,9.00
2019-03-30T10:05:06.445Z,7.73
2019-03-30T10:07:34.899Z,9.47
2019-03-30T10:10:03.772Z,9.97
2019-03-30T10:12:32.240Z,10.47
2019-03-30T10:15:00.863Z,9.60
2019-03-30T10:17:29.433Z,10.43
2019-03-30T10:20:04.264Z,13.50
2019-03-30T10:22:28.090Z,9.20
2019-03-30T10:24:58.396Z,13.40
2019-03-30T10:27:26.836Z,10.43
2019-03-30T10:29:55.310Z,10.33
2019-03-30T10:32:23.785Z,17.43
2019-03-30T10:34:52.233Z,17.87
2019-03-30T10:37:20.712Z,8.73
2019-03-30T10:39:49.261Z,8.20
2019-03-30T10:42:17.838Z,12.73
2019-03-30T10:44:46.338Z,10.33
2019-03-30T10:47:14.789Z,8.60
2019-03-30T10:49:43.229Z,11.87
2019-03-30T10:52:11.673Z,9.30
2019-03-30T10:54:52.110Z,8.57
2019-03-30T10:57:10.533Z,6.80
2019-03-30T10:59:39.003Z,12.83
2019-03-30T11:02:08.276Z,9.30
2019-03-30T11:04:37.692Z,11.60
2019-03-30T11:07:06.290Z,11.67
2019-03-30T11:09:34.749Z,10.40
2019-03-30T11:12:04.096Z,11.30
2019-03-30T11:14:32.607Z,10.50
2019-03-30T11:17:01.124Z,8.90
2019-03-30T11:19:29.593Z,8.83
2019-03-30T11:21:58.031Z,12.20
2019-03-30T11:24:26.507Z,9.37
2019-03-30T11:26:54.952Z,10.37
2019-03-30T11:29:23.435Z,10.37
2019-03-30T11:31:51.897Z,12.90
2019-03-30T11:34:20.355Z,9.70
2019-03-30T11:36:48.791Z,11.00
2019-03-30T11:39:17.272Z,9.03
2019-03-30T11:41:45.736Z,10.70
2019-03-30T11:44:14.197Z,6.57
2019-03-30T11:46:42.658Z,10.53
2019-03-30T11:49:11.122Z,9.30
2019-03-30T11:51:39.562Z,10.33
2019-03-30T11:54:08.011Z,9.50
2019-03-30T11:56:36.454Z,11.80
2019-03-30T11:59:04.934Z,11.67
2019-03-30T12:01:33.368Z,9.33
2019-03-30T12:04:01.825Z,17.00
2019-03-30T12:06:30.289Z,6.93
2019-03-30T12:08:58.723Z,6.50
2019-03-30T12:11:27.195Z,7.23
2019-03-30T12:13:55.646Z,6.70
2019-03-30T12:16:24.224Z,7.37
2019-03-30T12:18:52.693Z,9.73
2019-03-30T12:21:21.148Z,10.23
2019-03-30T12:23:49.595Z,7.00
2019-03-30T12:26:18.052Z,8.57
2019-03-30T12:28:46.482Z,10.60
2019-03-30T12:31:14.977Z,6.80
2019-03-30T12:33:43.487Z,13.03
2019-03-30T12:36:12.840Z,9.30
2019-03-30T12:38:41.279Z,7.90
2019-03-30T12:41:09.725Z,11.83
2019-03-30T12:43:39.166Z,14.20
2019-03-30T12:46:07.831Z,11.87
2019-03-30T12:48:36.310Z,6.33
2019-03-30T12:51:04.754Z,8.83
2019-03-30T12:53:33.225Z,7.40
2019-03-30T12:56:01.667Z,8.57
2019-03-30T12:58:30.131Z,14.37
2019-03-30T13:00:58.570Z,7.23
2019-03-30T13:03:27.076Z,8.63
2019-03-30T13:05:55.596Z,10.73
2019-03-30T13:08:24.067Z,6.77
2019-03-30T13:10:52.511Z,11.60
2019-03-30T13:13:21.262Z,12.83
2019-03-30T13:15:49.703Z,13.47
2019-03-30T13:18:18.135Z,7.73
2019-03-30T13:20:46.583Z,8.93
2019-03-30T13:23:15.041Z,7.40
2019-03-30T13:25:43.504Z,9.87
2019-03-30T13:28:11.942Z,7.00
2019-03-30T13:30:40.382Z,8.50
2019-03-30T13:33:08.850Z,18.43
2019-03-30T13:35:37.464Z,9.00
2019-03-30T13:38:05.909Z,9.80
2019-03-30T13:40:34.365Z,9.57
2019-03-30T13:43:02.794Z,7.13
2019-03-30T13:45:31.242Z,9.27
2019-03-30T13:47:59.721Z,9.47
2019-03-30T13:50:30.782Z,10.10
2019-03-30T13:52:58.334Z,6.67
2019-03-30T13:55:26.810Z,6.47
2019-03-30T13:57:55.273Z,12.60
2019-03-30T14:00:23.762Z,10.73
2019-03-30T14:02:52.275Z,11.23
2019-03-30T14:05:20.765Z,8.57
2019-03-30T14:07:49.202Z,6.97
2019-03-30T14:10:18.312Z,6.03
2019-03-30T14:12:46.769Z,7.93
2019-03-30T14:15:15.291Z,8.73
2019-03-30T14:17:43.736Z,16.00
2019-03-30T14:20:12.340Z,8.83
2019-03-30T14:22:40.813Z,7.50
2019-03-30T14:25:09.324Z,5.20
2019-03-30T14:27:37.759Z,10.37
2019-03-30T14:30:09.166Z,6.90
2019-03-30T14:32:37.693Z,6.70
2019-03-30T14:35:06.903Z,8.07
2019-03-30T14:37:35.613Z,12.93
2019-03-30T14:40:06.399Z,9.20
2019-03-30T14:42:34.840Z,10.30
2019-03-30T14:45:03.869Z,9.90
2019-03-30T14:47:32.320Z,16.50
2019-03-30T14:50:00.786Z,10.83
2019-03-30T14:52:29.229Z,7.10
2019-03-30T14:54:57.690Z,5.90
2019-03-30T14:57:26.141Z,8.00
2019-03-30T14:59:54.591Z,7.03
2019-03-30T15:02:23.039Z,8.70
2019-03-30T15:04:51.534Z,12.60
2019-03-30T15:07:19.985Z,10.60
2019-03-30T15:09:48.432Z,6.57
2019-03-30T15:12:16.878Z,6.30
2019-03-30T15:14:45.314Z,7.30
2019-03-30T15:17:13.778Z,7.83
2019-03-30T15:19:42.247Z,8.17
2019-03-30T15:22:10.690Z,9.00
2019-03-30T15:24:39.146Z,7.10
2019-03-30T15:27:07.610Z,14.23
2019-03-30T15:29:36.145Z,6.13
2019-03-30T15:32:04.759Z,7.70
2019-03-30T15:34:33.198Z,8.30
2019-03-30T15:37:01.691Z,13.70
2019-03-30T15:39:30.203Z,9.10
2019-03-30T15:41:58.643Z,6.97
2019-03-30T15:44:27.102Z,7.10
2019-03-30T15:46:55.629Z,8.43
2019-03-30T15:49:24.141Z,6.03
2019-03-30T15:51:52.610Z,6.37
2019-03-30T15:54:21.055Z,9.23
2019-03-30T15:56:49.497Z,7.43
2019-03-30T15:59:17.981Z,9.00
2019-03-30T16:01:46.432Z,5.40
2019-03-30T16:04:14.888Z,7.00
2019-03-30T16:06:43.329Z,4.63
2019-03-30T16:09:11.762Z,6.83
2019-03-30T16:11:40.215Z,5.53
2019-03-30T16:14:08.691Z,10.60
2019-03-30T16:16:37.136Z,6.10
2019-03-30T16:19:05.665Z,6.73
2019-03-30T16:21:34.171Z,7.30
2019-03-30T16:24:02.634Z,8.40
2019-03-30T16:26:42.038Z,5.73
2019-03-30T16:29:01.271Z,11.00
2019-03-30T16:31:29.981Z,4.10
2019-03-30T16:33:58.443Z,4.67
2019-03-30T16:36:26.922Z,7.17
2019-03-30T16:38:55.355Z,5.77
2019-03-30T16:41:23.852Z,4.07
2019-03-30T16:43:52.305Z,5.70
2019-03-30T16:46:20.781Z,5.20
2019-03-30T16:48:49.302Z,6.43
2019-03-30T16:51:17.759Z,11.90
2019-03-30T16:53:47.425Z,5.40
2019-03-30T16:56:16.313Z,5.50
2019-03-30T16:58:44.791Z,4.07
2019-03-30T17:01:13.461Z,5.83
2019-03-30T17:03:41.902Z,4.53
2019-03-30T17:06:10.373Z,8.70
2019-03-30T17:08:38.843Z,5.60
2019-03-30T17:11:09.159Z,8.37
2019-03-30T17:13:37.630Z,10.77
2019-03-30T17:16:06.723Z,10.73
2019-03-30T17:18:35.241Z,6.77
2019-03-30T17:21:03.687Z,5.60
2019-03-30T17:23:32.146Z,13.90
2019-03-30T17:26:00.598Z,7.30
2019-03-30T17:28:29.039Z,9.40
2019-03-30T17:30:57.516Z,7.73
2019-03-30T17:33:26.027Z,8.83
2019-03-30T17:35:54.739Z,11.63
2019-03-30T17:38:23.194Z,7.53
2019-03-30T17:40:51.654Z,6.80
2019-03-30T17:43:20.105Z,8.47
2019-03-30T17:45:48.690Z,6.23
2019-03-30T17:48:17.198Z,10.10
2019-03-30T17:50:45.654Z,7.67
2019-03-30T17:53:14.089Z,10.27
2019-03-30T17:55:42.530Z,7.83
2019-03-30T17:58:13.447Z,8.50
2019-03-30T18:00:41.414Z,16.03
2019-03-30T18:03:09.867Z,5.50
2019-03-30T18:05:38.315Z,14.27
2019-03-30T18:08:06.782Z,6.50
2019-03-30T18:10:35.209Z,7.87
2019-03-30T18:13:03.680Z,6.60
2019-03-30T18:15:34.696Z,6.30
2019-03-30T18:18:02.288Z,9.30
2019-03-30T18:20:30.724Z,4.40
2019-03-30T18:22:59.180Z,4.30
2019-03-30T18:25:27.629Z,5.87
2019-03-30T18:27:56.134Z,8.73
2019-03-30T18:30:36.218Z,9.17
2019-03-30T18:33:04.915Z,11.73
2019-03-30T18:35:33.739Z,7.23
2019-03-30T18:38:03.755Z,8.90
2019-03-30T18:40:33.165Z,13.63
2019-03-30T18:43:03.331Z,10.07
2019-03-30T18:45:32.201Z,10.10
2019-03-30T18:48:15.023Z,19.43
2019-03-30T18:50:45.115Z,11.40
2019-03-30T18:53:15.819Z,8.60
2019-03-30T18:55:44.313Z,7.63
2019-03-30T18:58:12.772Z,6.47
2019-03-30T19:00:41.266Z,9.70
2019-03-30T19:03:09.739Z,12.40
2019-03-30T19:05:38.259Z,7.40
2019-03-30T19:08:06.732Z,11.23
2019-03-30T19:10:35.255Z,7.27
2019-03-30T19:13:03.777Z,9.70
2019-03-30T19:15:32.294Z,6.03
2019-03-30T19:18:00.808Z,12.33
2019-03-30T19:20:29.298Z,6.67
2019-03-30T19:22:57.747Z,14.10
2019-03-30T19:25:29.552Z,16.77
2019-03-30T19:27:56.384Z,15.00
2019-03-30T19:30:24.908Z,8.50
2019-03-30T19:32:53.362Z,18.40
2019-03-30T19:35:21.807Z,13.30
2019-03-30T19:37:50.252Z,19.10
2019-03-30T19:40:18.696Z,13.50
2019-03-30T19:42:47.131Z,12.40
2019-03-30T19:45:15.842Z,9.17
2019-03-30T19:47:44.377Z,23.33
2019-03-30T19:50:12.895Z,26.70
2019-03-30T19:52:41.684Z,12.43
2019-03-30T19:55:10.184Z,13.53
2019-03-30T19:57:38.688Z,9.60
2019-03-30T20:00:11.430Z,9.03
2019-03-30T20:02:39.882Z,10.07
2019-03-30T20:05:08.942Z,15.27
2019-03-30T20:07:37.379Z,9.27
2019-03-30T20:10:06.542Z,11.23
2019-03-30T20:12:35.067Z,12.27
2019-03-30T20:15:04.505Z,8.77
2019-03-30T20:17:33.118Z,11.23
2019-03-30T20:20:01.584Z,19.50
2019-03-30T20:22:30.040Z,15.33
2019-03-30T20:24:58.499Z,16.30
2019-03-30T20:27:26.956Z,13.23
2019-03-30T20:29:55.413Z,9.87
2019-03-30T20:32:23.858Z,11.80
2019-03-30T20:34:52.542Z,7.60
2019-03-30T20:37:20.993Z,12.10
2019-03-30T20:39:49.417Z,12.60
2019-03-30T20:42:17.883Z,20.77
2019-03-30T20:44:46.313Z,8.87
2019-03-30T20:47:14.755Z,6.80
2019-03-30T20:49:43.198Z,8.40
2019-03-30T20:52:11.650Z,13.63
2019-03-30T20:54:40.075Z,13.70
2019-03-30T20:57:08.551Z,9.70
2019-03-30T20:59:40.224Z,10.07
2019-03-30T21:02:07.744Z,13.70
2019-03-30T21:04:36.175Z,11.00
2019-03-30T21:07:04.701Z,14.20
2019-03-30T21:09:33.166Z,18.47
2019-03-30T21:12:01.610Z,8.30
2019-03-30T21:14:30.051Z,11.00
2019-03-30T21:16:58.491Z,8.50
2019-03-30T21:19:26.931Z,16.77
2019-03-30T21:21:55.395Z,10.63
2019-03-30T21:24:23.833Z,10.17
2019-03-30T21:26:52.286Z,10.50
2019-03-30T21:29:20.730Z,21.27
2019-03-30T21:31:49.470Z,12.47
2019-03-30T21:34:18.044Z,14.90
2019-03-30T21:36:46.561Z,14.93
2019-03-30T21:39:15.073Z,20.20
2019-03-30T21:41:43.541Z,14.50
2019-03-30T21:44:22.063Z,14.70
2019-03-30T21:46:42.223Z,14.17
2019-03-30T21:49:10.656Z,17.07
2019-03-30T21:51:39.099Z,17.83
2019-03-30T21:54:07.539Z,14.10
2019-03-30T21:56:35.967Z,14.60
2019-03-30T21:59:04.469Z,29.43
2019-03-30T22:01:32.971Z,11.07
2019-03-30T22:04:01.406Z,16.00
2019-03-30T22:06:29.862Z,8.73
2019-03-30T22:08:58.677Z,10.33
2019-03-30T22:11:27.174Z,14.13
2019-03-30T22:13:55.626Z,16.00
2019-03-30T22:16:24.067Z,12.53
2019-03-30T22:18:52.545Z,22.70
2019-03-30T22:21:20.998Z,16.17
2019-03-30T22:23:49.647Z,19.03
2019-03-30T22:26:18.086Z,20.33
2019-03-30T22:28:46.556Z,20.90
2019-03-30T22:31:15.085Z,15.93
2019-03-30T22:33:43.553Z,17.30
2019-03-30T22:36:12.009Z,21.40
2019-03-30T22:38:40.461Z,17.60
2019-03-30T22:41:08.925Z,14.17
2019-03-30T22:43:37.355Z,21.90
2019-03-30T22:46:07.587Z,10.63
2019-03-30T22:48:35.975Z,14.47
2019-03-30T22:51:04.424Z,10.00
2019-03-30T22:53:32.858Z,13.70
2019-03-30T22:56:01.298Z,12.23
2019-03-30T22:58:29.756Z,16.07
2019-03-30T23:00:59.835Z,11.20
2019-03-30T23:03:28.274Z,20.17
2019-03-30T23:05:56.713Z,15.23
2019-03-30T23:08:25.159Z,16.80
2019-03-30T23:10:53.595Z,18.80
2019-03-30T23:13:22.034Z,11.63
2019-03-30T23:15:50.475Z,19.13
2019-03-30T23:18:18.915Z,14.70
2019-03-30T23:20:47.588Z,16.23
2019-03-30T23:23:16.039Z,16.70
2019-03-30T23:25:44.737Z,18.90
2019-03-30T23:28:13.183Z,16.40
2019-03-30T23:30:53.656Z,18.40
2019-03-30T23:33:11.798Z,17.30
2019-03-30T23:35:40.266Z,22.43
2019-03-30T23:38:08.787Z,16.13
2019-03-30T23:40:37.222Z,22.67
2019-03-30T23:43:05.738Z,14.10
2019-03-30T23:45:34.190Z,27.00
2019-03-30T23:48:02.635Z,17.33
2019-03-30T23:50:31.084Z,20.13
2019-03-30T23:52:59.556Z,43.17
2019-03-30T23:55:28.158Z,21.37
2019-03-30T23:57:56.614Z,22.93
